North Beach, Maryland
Current Conditions -  °F | °C
As of 2:54 PM on Wednesday 26 Nov 2014 (Local Time) from KNAK Reporting Station
Light Rain Light Rain  
Wind Chill: 29°   Ceiling: 1000
Heat Index: 38°   Visibility: 10mi
Dew Point: 35°   Wind: 15mph
Humidity: 89%   Direction: 340°NNW
Pressure: 29.85"   Gusts: NA
Location:  38.71°N, 76.53°W
Report Text: KNAK 261954Z AUTO 34013KT 10SM -RA OVC010 03/02 A2985 RMK AO2 CIG 009V014 SLP109 P0004 T00330017
Loading
Personal Weather Stations






























Interactive Weather Map New forecast layout! Learn more

10-Day Weather Forecast

Advertisements
Track Severe Weather on mobile